createdAt,value
2018-02-21T00:00:07.401Z,9.80
2018-02-21T00:02:35.821Z,9.80
2018-02-21T00:05:03.860Z,9.80
2018-02-21T00:07:32.549Z,9.80
2018-02-21T00:10:00.190Z,9.80
2018-02-21T00:12:28.539Z,9.80
2018-02-21T00:14:56.116Z,9.80
2018-02-21T00:17:23.689Z,9.80
2018-02-21T00:19:51.252Z,9.80
2018-02-21T00:22:19.548Z,9.80
2018-02-21T00:24:47.881Z,9.80
2018-02-21T00:27:15.449Z,9.80
2018-02-21T00:29:43.020Z,9.80
2018-02-21T00:32:10.595Z,9.80
2018-02-21T00:34:38.924Z,9.80
2018-02-21T00:37:06.524Z,9.80
2018-02-21T00:39:34.152Z,9.80
2018-02-21T00:42:01.734Z,9.80
2018-02-21T00:44:30.118Z,9.70
2018-02-21T00:46:57.701Z,9.70
2018-02-21T00:49:26.084Z,9.80
2018-02-21T00:51:54.410Z,9.70
2018-02-21T00:54:22.015Z,9.70
2018-02-21T00:56:51.727Z,9.70
2018-02-21T00:59:20.061Z,9.70
2018-02-21T01:01:47.625Z,9.70
2018-02-21T01:04:15.198Z,9.70
2018-02-21T01:06:42.765Z,9.70
2018-02-21T01:09:10.360Z,9.70
2018-02-21T01:11:38.726Z,9.70
2018-02-21T01:14:07.059Z,9.70
2018-02-21T01:16:34.626Z,9.70
2018-02-21T01:19:02.222Z,9.70
2018-02-21T01:21:30.557Z,9.70
2018-02-21T01:23:58.120Z,9.70
2018-02-21T01:26:25.724Z,9.70
2018-02-21T01:28:53.508Z,9.70
2018-02-21T01:31:21.838Z,9.70
2018-02-21T01:33:49.493Z,9.70
2018-02-21T01:36:17.093Z,9.70
2018-02-21T01:38:45.464Z,9.60
2018-02-21T01:41:13.060Z,9.60
2018-02-21T01:43:40.627Z,9.60
2018-02-21T01:46:08.230Z,9.60
2018-02-21T01:48:35.914Z,9.60
2018-02-21T01:51:03.490Z,9.60
2018-02-21T01:53:31.822Z,9.60
2018-02-21T01:55:59.420Z,9.60
2018-02-21T01:58:27.804Z,9.60
2018-02-21T02:00:56.143Z,9.60
2018-02-21T02:03:24.562Z,9.60
2018-02-21T02:05:52.954Z,9.60
2018-02-21T02:08:21.411Z,9.60
2018-02-21T02:10:49.509Z,9.60
2018-02-21T02:13:17.882Z,9.60
2018-02-21T02:15:46.250Z,9.60
2018-02-21T02:18:14.704Z,9.60
2018-02-21T02:20:42.265Z,9.50
2018-02-21T02:23:09.830Z,9.60
2018-02-21T02:25:37.400Z,9.60
2018-02-21T02:28:04.986Z,9.60
2018-02-21T02:30:33.324Z,9.60
2018-02-21T02:33:01.822Z,9.50
2018-02-21T02:35:29.497Z,9.60
2018-02-21T02:37:57.112Z,9.60
2018-02-21T02:40:24.725Z,9.60
2018-02-21T02:42:53.064Z,9.50
2018-02-21T02:45:22.049Z,9.50
2018-02-21T02:47:50.615Z,9.50
2018-02-21T02:50:18.187Z,9.50
2018-02-21T02:52:45.760Z,9.50
2018-02-21T02:55:13.375Z,9.50
2018-02-21T02:57:41.705Z,9.50
2018-02-21T03:00:09.284Z,9.50
2018-02-21T03:02:36.860Z,9.50
2018-02-21T03:05:04.469Z,9.50
2018-02-21T03:07:32.100Z,9.50
2018-02-21T03:09:59.738Z,9.50
2018-02-21T03:12:27.300Z,9.50
2018-02-21T03:14:54.879Z,9.50
2018-02-21T03:17:23.212Z,9.50
2018-02-21T03:19:50.902Z,9.50
2018-02-21T03:22:18.589Z,9.50
2018-02-21T03:24:46.921Z,9.50
2018-02-21T03:27:14.542Z,9.50
2018-02-21T03:29:42.150Z,9.50
2018-02-21T03:32:09.714Z,9.50
2018-02-21T03:34:37.323Z,9.50
2018-02-21T03:37:04.974Z,9.50
2018-02-21T03:39:33.309Z,9.50
2018-02-21T03:42:00.899Z,9.40
2018-02-21T03:44:29.284Z,9.50
2018-02-21T03:46:57.662Z,9.50
2018-02-21T03:49:25.999Z,9.40
2018-02-21T03:51:53.576Z,9.50
2018-02-21T03:54:21.151Z,9.50
2018-02-21T03:56:49.451Z,9.40
2018-02-21T03:59:17.027Z,9.40
2018-02-21T04:01:44.657Z,9.40
2018-02-21T04:04:12.233Z,9.40
2018-02-21T04:06:39.877Z,9.40
2018-02-21T04:09:07.457Z,9.40
2018-02-21T04:11:35.799Z,9.40
2018-02-21T04:14:03.389Z,9.40
2018-02-21T04:16:31.719Z,9.40
2018-02-21T04:19:00.301Z,9.40
2018-02-21T04:21:27.874Z,9.40
2018-02-21T04:23:55.442Z,9.40
2018-02-21T04:26:23.027Z,9.40
2018-02-21T04:28:52.240Z,9.40
2018-02-21T04:31:21.827Z,9.40
2018-02-21T04:33:50.117Z,9.40
2018-02-21T04:36:18.440Z,9.40
2018-02-21T04:38:46.123Z,9.40
2018-02-21T04:41:13.702Z,9.40
2018-02-21T04:43:42.097Z,9.40
2018-02-21T04:46:10.485Z,9.40
2018-02-21T04:48:38.855Z,9.40
2018-02-21T04:51:07.244Z,9.40
2018-02-21T04:53:35.588Z,9.40
2018-02-21T04:59:07.737Z,9.40
2018-02-21T05:01:35.300Z,9.40
2018-02-21T05:04:02.882Z,9.40
2018-02-21T05:06:30.602Z,9.40
2018-02-21T05:08:58.199Z,9.30
2018-02-21T05:11:25.906Z,9.40
2018-02-21T05:13:53.847Z,9.40
2018-02-21T05:16:21.404Z,9.40
2018-02-21T05:18:49.728Z,9.40
2018-02-21T05:21:17.325Z,9.40
2018-02-21T05:23:44.935Z,9.40
2018-02-21T05:26:13.279Z,9.40
2018-02-21T05:28:40.886Z,9.30
2018-02-21T05:31:09.323Z,9.30
2018-02-21T05:33:37.044Z,9.30
2018-02-21T05:36:04.625Z,9.30
2018-02-21T05:38:32.256Z,9.40
2018-02-21T05:41:00.619Z,9.30
2018-02-21T05:43:28.272Z,9.30
2018-02-21T05:45:55.922Z,9.30
2018-02-21T05:48:23.481Z,9.40
2018-02-21T05:50:51.076Z,9.30
2018-02-21T05:53:19.540Z,9.30
2018-02-21T05:55:47.151Z,9.30
2018-02-21T05:58:14.725Z,9.30
2018-02-21T06:00:42.360Z,9.30
2018-02-21T06:03:10.016Z,9.30
2018-02-21T06:05:37.649Z,9.30
2018-02-21T06:08:05.227Z,9.30
2018-02-21T06:10:33.713Z,9.30
2018-02-21T06:13:02.371Z,9.30
2018-02-21T06:15:29.947Z,9.30
2018-02-21T06:17:57.635Z,9.30
2018-02-21T06:20:25.220Z,9.30
2018-02-21T06:22:52.839Z,9.30
2018-02-21T06:25:21.262Z,9.30
2018-02-21T06:27:49.616Z,9.30
2018-02-21T06:30:18.122Z,9.30
2018-02-21T06:32:45.703Z,9.30
2018-02-21T06:35:13.312Z,9.30
2018-02-21T06:37:41.646Z,9.30
2018-02-21T06:40:09.231Z,9.30
2018-02-21T06:42:36.898Z,9.30
2018-02-21T06:45:04.625Z,9.30
2018-02-21T06:47:32.211Z,9.30
2018-02-21T06:49:59.798Z,9.30
2018-02-21T06:52:28.187Z,9.30
2018-02-21T06:54:56.549Z,9.30
2018-02-21T06:57:24.113Z,9.30
2018-02-21T06:59:52.470Z,9.30
2018-02-21T07:02:31.941Z,9.30
2018-02-21T07:05:00.275Z,9.30
2018-02-21T07:07:27.871Z,9.30
2018-02-21T07:09:56.206Z,9.30
2018-02-21T07:12:23.821Z,9.30
2018-02-21T07:14:52.204Z,9.30
2018-02-21T07:17:21.292Z,9.30
2018-02-21T07:19:50.371Z,9.30
2018-02-21T07:22:18.063Z,9.30
2018-02-21T07:24:46.423Z,9.30
2018-02-21T07:27:14.812Z,9.30
2018-02-21T07:29:43.222Z,9.30
2018-02-21T07:32:10.793Z,9.30
2018-02-21T07:34:38.372Z,9.40
2018-02-21T07:37:05.978Z,9.40
2018-02-21T07:39:34.376Z,9.40
2018-02-21T07:42:01.946Z,9.40
2018-02-21T07:44:29.512Z,9.50
2018-02-21T07:46:57.140Z,9.50
2018-02-21T07:49:25.468Z,9.60
2018-02-21T07:51:53.040Z,9.50
2018-02-21T07:54:21.645Z,9.60
2018-02-21T07:56:50.192Z,9.60
2018-02-21T07:59:17.752Z,9.70
2018-02-21T08:01:45.362Z,9.70
2018-02-21T08:04:13.710Z,9.80
2018-02-21T08:06:41.303Z,9.70
2018-02-21T08:09:09.792Z,9.80
2018-02-21T08:11:37.389Z,9.80
2018-02-21T08:14:05.006Z,9.90
2018-02-21T08:16:33.345Z,9.90
2018-02-21T08:19:00.949Z,9.90
2018-02-21T08:21:29.331Z,10.00
2018-02-21T08:23:57.707Z,10.00
2018-02-21T08:26:26.096Z,10.00
2018-02-21T08:28:54.441Z,10.10
2018-02-21T08:31:22.025Z,10.00
2018-02-21T08:33:51.587Z,10.10
2018-02-21T08:36:20.065Z,10.10
2018-02-21T08:38:47.682Z,10.10
2018-02-21T08:41:16.056Z,10.10
2018-02-21T08:43:44.458Z,10.20
2018-02-21T08:46:12.044Z,10.10
2018-02-21T08:48:39.660Z,10.20
2018-02-21T08:51:08.042Z,10.20
2018-02-21T08:53:36.391Z,10.20
2018-02-21T08:56:03.982Z,10.20
2018-02-21T08:58:31.628Z,10.30
2018-02-21T09:00:59.308Z,10.30
2018-02-21T09:03:27.653Z,10.30
2018-02-21T09:05:55.236Z,10.30
2018-02-21T09:08:22.820Z,10.40
2018-02-21T09:10:51.699Z,10.40
2018-02-21T09:13:20.082Z,10.40
2018-02-21T09:15:48.421Z,10.40
2018-02-21T09:18:16.011Z,10.40
2018-02-21T09:20:43.584Z,10.40
2018-02-21T09:23:11.945Z,10.50
2018-02-21T09:25:40.340Z,10.50
2018-02-21T09:28:08.718Z,10.50
2018-02-21T09:30:37.096Z,10.50
2018-02-21T09:33:05.447Z,10.50
2018-02-21T09:35:33.033Z,10.50
2018-02-21T09:38:01.372Z,10.50
2018-02-21T09:40:28.972Z,10.50
2018-02-21T09:42:57.308Z,10.50
2018-02-21T09:45:24.880Z,10.50
2018-02-21T09:47:52.472Z,10.50
2018-02-21T09:50:22.043Z,10.50
2018-02-21T09:52:50.822Z,10.50
2018-02-21T09:55:18.398Z,10.60
2018-02-21T09:57:46.000Z,10.60
2018-02-21T10:00:14.371Z,10.60
2018-02-21T10:02:43.071Z,10.60
2018-02-21T10:05:11.440Z,10.60
2018-02-21T10:07:39.813Z,10.60
2018-02-21T10:10:08.201Z,10.60
2018-02-21T10:12:36.543Z,10.60
2018-02-21T10:15:04.120Z,10.60
2018-02-21T10:17:31.703Z,10.60
2018-02-21T10:20:00.079Z,10.60
2018-02-21T10:22:28.430Z,10.60
2018-02-21T10:24:56.121Z,10.60
2018-02-21T10:27:24.496Z,10.60
2018-02-21T10:29:52.841Z,10.60
2018-02-21T10:32:21.671Z,10.60
2018-02-21T10:34:50.059Z,10.60
2018-02-21T10:37:18.441Z,10.60
2018-02-21T10:39:46.775Z,10.60
2018-02-21T10:42:14.341Z,10.50
2018-02-21T10:44:43.463Z,10.50
2018-02-21T10:47:11.839Z,10.50
2018-02-21T10:49:40.226Z,10.50
2018-02-21T10:52:08.594Z,10.50
2018-02-21T10:54:36.598Z,10.50
2018-02-21T10:57:04.231Z,10.50
2018-02-21T10:59:32.634Z,10.50
2018-02-21T11:02:00.989Z,10.50
2018-02-21T11:04:29.327Z,10.50
2018-02-21T11:06:56.936Z,10.50
2018-02-21T11:09:25.308Z,10.50
2018-02-21T11:11:53.649Z,10.50
2018-02-21T11:14:21.215Z,10.40
2018-02-21T11:16:49.441Z,10.50
2018-02-21T11:19:17.018Z,10.50
2018-02-21T11:21:44.654Z,10.50
2018-02-21T11:24:13.002Z,10.40
2018-02-21T11:26:40.593Z,10.40
2018-02-21T11:29:08.929Z,10.40
2018-02-21T11:31:36.636Z,10.40
2018-02-21T11:34:05.029Z,10.40
2018-02-21T11:36:32.609Z,10.40
2018-02-21T11:39:00.200Z,10.40
2018-02-21T11:41:27.800Z,10.40
2018-02-21T11:43:56.195Z,10.40
2018-02-21T11:46:23.837Z,10.40
2018-02-21T11:48:52.220Z,10.40
2018-02-21T11:51:21.732Z,10.40
2018-02-21T11:53:50.917Z,10.40
2018-02-21T11:56:18.495Z,10.40
2018-02-21T11:58:46.125Z,10.40
2018-02-21T12:01:13.797Z,10.40
2018-02-21T12:03:41.369Z,10.40
2018-02-21T12:06:09.745Z,10.40
2018-02-21T12:08:38.141Z,10.40
2018-02-21T12:11:06.489Z,10.40
2018-02-21T12:13:34.079Z,10.40
2018-02-21T12:16:02.466Z,10.40
2018-02-21T12:18:30.029Z,10.40
2018-02-21T12:20:58.822Z,10.40
2018-02-21T12:23:26.386Z,10.40
2018-02-21T12:25:54.720Z,10.40
2018-02-21T12:28:23.051Z,10.40
2018-02-21T12:30:50.607Z,10.30
2018-02-21T12:33:18.182Z,10.40
2018-02-21T12:35:46.513Z,10.40
2018-02-21T12:38:14.852Z,10.40
2018-02-21T12:43:47.489Z,10.40
2018-02-21T12:46:15.873Z,10.40
2018-02-21T12:48:44.224Z,10.40
2018-02-21T12:51:12.421Z,10.30
2018-02-21T12:53:41.795Z,10.40
2018-02-21T12:56:09.368Z,10.30
2018-02-21T12:58:36.943Z,10.40
2018-02-21T13:01:05.301Z,10.40
2018-02-21T13:03:32.909Z,10.30
2018-02-21T13:06:01.297Z,10.40
2018-02-21T13:08:28.917Z,10.30
2018-02-21T13:10:56.597Z,10.30
2018-02-21T13:13:24.948Z,10.30
2018-02-21T13:15:52.637Z,10.30
2018-02-21T13:18:21.084Z,10.40
2018-02-21T13:20:48.672Z,10.30
2018-02-21T13:23:16.333Z,10.40
2018-02-21T13:25:44.718Z,10.40
2018-02-21T13:28:12.380Z,10.40
2018-02-21T13:30:42.091Z,10.30
2018-02-21T13:33:11.617Z,10.30
2018-02-21T13:35:39.255Z,10.40
2018-02-21T13:38:07.604Z,10.30
2018-02-21T13:40:35.195Z,10.30
2018-02-21T13:43:03.552Z,10.30
2018-02-21T13:45:31.248Z,10.40
2018-02-21T13:47:59.645Z,10.30
2018-02-21T13:50:27.215Z,10.30
2018-02-21T13:52:54.791Z,10.30
2018-02-21T13:55:22.376Z,10.30
2018-02-21T13:57:50.069Z,10.30
2018-02-21T14:00:18.448Z,10.30
2018-02-21T14:02:46.839Z,10.30
2018-02-21T14:05:14.488Z,10.30
2018-02-21T14:07:42.829Z,10.30
2018-02-21T14:10:11.550Z,10.30
2018-02-21T14:12:39.223Z,10.30
2018-02-21T14:15:07.605Z,10.30
2018-02-21T14:17:35.973Z,10.30
2018-02-21T14:20:04.327Z,10.30
2018-02-21T14:22:32.025Z,10.30
2018-02-21T14:25:00.373Z,10.30
2018-02-21T14:27:27.963Z,10.30
2018-02-21T14:29:56.306Z,10.30
2018-02-21T14:32:23.883Z,10.30
2018-02-21T14:34:51.458Z,10.30
2018-02-21T14:37:19.813Z,10.30
2018-02-21T14:39:47.507Z,10.30
2018-02-21T14:42:15.900Z,10.30
2018-02-21T14:44:43.546Z,10.20
2018-02-21T14:47:13.047Z,10.20
2018-02-21T14:49:42.291Z,10.20
2018-02-21T14:52:09.877Z,10.20
2018-02-21T14:54:38.291Z,10.20
2018-02-21T14:57:06.645Z,10.20
2018-02-21T14:59:34.220Z,10.20
2018-02-21T15:02:01.894Z,10.20
2018-02-21T15:04:30.237Z,10.20
2018-02-21T15:06:57.841Z,10.20
2018-02-21T15:09:25.508Z,10.20
2018-02-21T15:11:53.868Z,10.20
2018-02-21T15:14:22.251Z,10.20
2018-02-21T15:16:49.827Z,10.20
2018-02-21T15:19:18.168Z,10.20
2018-02-21T15:21:45.743Z,10.20
2018-02-21T15:24:13.741Z,10.20
2018-02-21T15:26:42.035Z,10.20
2018-02-21T15:29:09.665Z,10.20
2018-02-21T15:31:38.020Z,10.10
2018-02-21T15:34:05.607Z,10.10
2018-02-21T15:36:33.957Z,10.10
2018-02-21T15:39:01.977Z,10.10
2018-02-21T15:41:29.747Z,10.10
2018-02-21T15:43:57.480Z,10.10
2018-02-21T15:46:25.855Z,10.10
2018-02-21T15:48:54.938Z,10.10
2018-02-21T15:53:10.544Z,10.10
2018-02-21T15:55:38.142Z,10.10
2018-02-21T15:58:05.783Z,10.10
2018-02-21T16:00:34.163Z,10.10
2018-02-21T16:03:02.601Z,10.10
2018-02-21T16:05:30.204Z,10.00
2018-02-21T16:07:58.582Z,10.10
2018-02-21T16:10:26.952Z,10.10
2018-02-21T16:12:54.844Z,10.10
2018-02-21T16:15:22.432Z,10.10
2018-02-21T16:17:50.066Z,10.30
2018-02-21T16:20:18.535Z,11.30
2018-02-21T16:22:46.893Z,11.50
2018-02-21T16:25:14.587Z,11.50
2018-02-21T16:27:43.100Z,12.10
2018-02-21T16:30:12.715Z,12.10
2018-02-21T16:32:40.317Z,12.50
2018-02-21T16:35:08.000Z,12.60
2018-02-21T16:37:36.568Z,12.90
2018-02-21T16:40:05.065Z,13.10
2018-02-21T16:42:33.444Z,13.20
2018-02-21T16:45:01.790Z,13.40
2018-02-21T16:47:29.473Z,13.40
2018-02-21T16:49:57.058Z,13.40
2018-02-21T16:52:26.113Z,13.60
2018-02-21T16:54:54.954Z,13.60
2018-02-21T16:57:22.713Z,13.70
2018-02-21T16:59:50.304Z,13.80
2018-02-21T17:02:18.138Z,13.90
2018-02-21T17:04:45.866Z,14.00
2018-02-21T17:07:13.534Z,14.00
2018-02-21T17:09:42.004Z,14.00
2018-02-21T17:12:10.422Z,14.10
2018-02-21T17:14:38.814Z,14.10
2018-02-21T17:17:06.812Z,14.10
2018-02-21T17:19:34.433Z,14.10
2018-02-21T17:22:02.430Z,14.20
2018-02-21T17:24:30.082Z,14.20
2018-02-21T17:26:57.945Z,14.10
2018-02-21T17:29:25.574Z,14.30
2018-02-21T17:31:53.980Z,14.30
2018-02-21T17:34:21.605Z,14.30
2018-02-21T17:36:49.328Z,14.30
2018-02-21T17:39:16.940Z,14.30
2018-02-21T17:41:44.553Z,14.40
2018-02-21T17:44:12.191Z,14.30
2018-02-21T17:46:39.846Z,14.40
2018-02-21T17:49:08.189Z,14.50
2018-02-21T17:51:35.758Z,14.50
2018-02-21T17:54:03.348Z,14.40
2018-02-21T17:56:31.700Z,14.50
2018-02-21T17:58:59.287Z,14.50
2018-02-21T18:01:27.868Z,14.60
2018-02-21T18:03:56.211Z,14.60
2018-02-21T18:06:24.874Z,14.60
2018-02-21T18:08:52.499Z,14.70
2018-02-21T18:11:20.890Z,14.70
2018-02-21T18:13:48.512Z,14.70
2018-02-21T18:16:16.211Z,14.80
2018-02-21T18:18:43.891Z,14.80
2018-02-21T18:21:17.528Z,14.80
2018-02-21T18:23:45.415Z,14.90
2018-02-21T18:26:13.782Z,14.90
2018-02-21T18:28:41.466Z,14.90
2018-02-21T18:31:09.825Z,15.00
2018-02-21T18:33:37.440Z,15.00
2018-02-21T18:36:06.945Z,15.10
2018-02-21T18:38:35.995Z,15.00
2018-02-21T18:41:07.688Z,14.90
2018-02-21T18:43:41.605Z,15.00
2018-02-21T18:46:11.212Z,15.00
2018-02-21T18:48:39.360Z,15.10
2018-02-21T18:51:07.353Z,15.10
2018-02-21T18:53:35.868Z,15.10
2018-02-21T18:56:04.173Z,15.10
2018-02-21T18:58:35.873Z,15.10
2018-02-21T19:01:04.978Z,15.10
2018-02-21T19:03:33.351Z,15.10
2018-02-21T19:06:02.342Z,15.10
2018-02-21T19:08:31.437Z,15.10
2018-02-21T19:11:02.788Z,15.10
2018-02-21T19:13:31.137Z,15.10
2018-02-21T19:15:59.035Z,15.20
2018-02-21T19:18:26.954Z,14.80
2018-02-21T19:20:56.000Z,14.40
2018-02-21T19:23:25.213Z,14.10
2018-02-21T19:25:53.967Z,13.80
2018-02-21T19:28:22.573Z,13.40
2018-02-21T19:30:50.362Z,13.30
2018-02-21T19:33:18.301Z,13.10
2018-02-21T19:35:46.075Z,12.90
2018-02-21T19:38:13.882Z,12.80
2018-02-21T19:40:41.670Z,12.60
2018-02-21T19:43:10.053Z,12.40
2018-02-21T19:45:38.436Z,12.30
2018-02-21T19:53:51.421Z,12.00
2018-02-21T19:56:19.246Z,11.90
2018-02-21T19:58:46.946Z,11.80
2018-02-21T20:01:15.462Z,11.70
2018-02-21T20:03:43.899Z,11.70
2018-02-21T20:06:11.600Z,11.70
2018-02-21T20:08:39.655Z,11.60
2018-02-21T20:11:07.735Z,11.50
2018-02-21T20:13:35.614Z,11.50
2018-02-21T20:16:03.572Z,11.40
2018-02-21T20:18:31.182Z,11.40
2018-02-21T20:20:58.756Z,11.40
2018-02-21T20:23:26.520Z,11.30
2018-02-21T20:25:55.204Z,11.30
2018-02-21T20:28:22.846Z,11.20
2018-02-21T20:30:50.442Z,11.20
2018-02-21T20:33:18.817Z,11.20
2018-02-21T20:35:46.419Z,11.10
2018-02-21T20:38:14.081Z,11.10
2018-02-21T20:40:41.670Z,11.10
2018-02-21T20:43:09.288Z,11.10
2018-02-21T20:45:37.752Z,11.00
2018-02-21T20:48:05.432Z,11.00
2018-02-21T20:50:33.140Z,11.00
2018-02-21T20:53:00.798Z,11.00
2018-02-21T20:55:28.513Z,11.00
2018-02-21T20:57:56.910Z,10.90
2018-02-21T21:00:24.567Z,10.90
2018-02-21T21:02:52.919Z,10.90
2018-02-21T21:05:21.414Z,10.90
2018-02-21T21:07:49.811Z,10.90
2018-02-21T21:10:18.173Z,10.90
2018-02-21T21:12:46.566Z,10.80
2018-02-21T21:15:14.225Z,10.80
2018-02-21T21:17:42.700Z,10.80
2018-02-21T21:20:10.294Z,10.80
2018-02-21T21:22:37.926Z,10.80
2018-02-21T21:25:06.298Z,10.80
2018-02-21T21:27:34.696Z,10.80
2018-02-21T21:30:03.054Z,10.70
2018-02-21T21:32:30.769Z,10.70
2018-02-21T21:34:58.402Z,10.70
2018-02-21T21:37:26.873Z,10.70
2018-02-21T21:39:56.277Z,10.70
2018-02-21T21:42:25.889Z,10.70
2018-02-21T21:44:53.975Z,10.70
2018-02-21T21:47:21.560Z,10.70
2018-02-21T21:49:49.203Z,10.60
2018-02-21T21:52:16.845Z,10.60
2018-02-21T21:54:45.236Z,10.60
2018-02-21T21:57:12.897Z,10.60
2018-02-21T21:59:40.499Z,10.60
2018-02-21T22:02:08.093Z,10.60
2018-02-21T22:04:35.680Z,10.60
2018-02-21T22:07:04.023Z,10.60
2018-02-21T22:09:31.603Z,10.50
2018-02-21T22:11:59.993Z,10.50
2018-02-21T22:14:28.350Z,10.50
2018-02-21T22:16:55.930Z,10.50
2018-02-21T22:19:25.243Z,10.50
2018-02-21T22:21:54.001Z,10.50
2018-02-21T22:24:21.590Z,10.50
2018-02-21T22:26:49.962Z,10.50
2018-02-21T22:29:18.339Z,10.50
2018-02-21T22:31:46.703Z,10.50
2018-02-21T22:34:14.284Z,10.50
2018-02-21T22:36:42.630Z,10.40
2018-02-21T22:39:10.231Z,10.40
2018-02-21T22:41:37.841Z,10.40
2018-02-21T22:44:05.432Z,10.40
2018-02-21T22:46:33.011Z,10.40
2018-02-21T22:49:00.627Z,10.40
2018-02-21T22:51:28.247Z,10.40
2018-02-21T22:53:55.850Z,10.40
2018-02-21T22:56:23.973Z,10.40
2018-02-21T22:58:52.351Z,10.30
2018-02-21T23:01:20.020Z,10.30
2018-02-21T23:03:47.611Z,10.30
2018-02-21T23:06:15.358Z,10.30
2018-02-21T23:08:42.935Z,10.30
2018-02-21T23:11:10.515Z,10.30
2018-02-21T23:13:38.115Z,10.30
2018-02-21T23:16:06.622Z,10.30
2018-02-21T23:18:34.192Z,10.30
2018-02-21T23:21:01.831Z,10.30
2018-02-21T23:23:29.515Z,10.30
2018-02-21T23:25:57.094Z,10.30
2018-02-21T23:28:25.575Z,10.30
2018-02-21T23:30:53.163Z,10.30
2018-02-21T23:33:20.883Z,10.20
2018-02-21T23:35:48.533Z,10.30
2018-02-21T23:38:16.116Z,10.20
2018-02-21T23:40:43.712Z,10.20
2018-02-21T23:43:11.293Z,10.20
2018-02-21T23:45:39.663Z,10.20
2018-02-21T23:48:07.242Z,10.20
2018-02-21T23:50:35.608Z,10.20
2018-02-21T23:53:03.309Z,10.20
2018-02-21T23:55:31.036Z,10.20
2018-02-21T23:57:58.617Z,10.20
